Observation data for Muleshoe on 03/24/2019      Previous  Date  Next       Current Mesonet Observations  Soil Data  Daily Summary Page  Observations in Plain Language
KMUS 240500Z 23006KT 08/M05 A3002 RMK A01 T00801048  RH  040%=      5-min Rain = 0
KMUS 240505Z 22008KT 08/M05 A3002 RMK A01 T00791049  RH  040%=      5-min Rain = 0
KMUS 240510Z 23008KT 08/M05 A3002 RMK A01 T00781048  RH  040%=      5-min Rain = 0
KMUS 240515Z 23007KT 08/M05 A3002 RMK A01 T00781048  RH  041%=      5-min Rain = 0
KMUS 240520Z 23007KT 08/M05 A3002 RMK A01 T00761046  RH  042%=      5-min Rain = 0
KMUS 240525Z 23006KT 07/M05 A3002 RMK A01 T00711046  RH  043%=      5-min Rain = 0
KMUS 240530Z 23005KT 07/M05 A3002 RMK A01 T00671046  RH  045%=      5-min Rain = 0
KMUS 240535Z 23006KT 07/M05 A3002 RMK A01 T00651046  RH  045%=      5-min Rain = 0
KMUS 240540Z 23005KT 06/M05 A3002 RMK A01 T00621045  RH  046%=      5-min Rain = 0
KMUS 240545Z 24005KT 06/M05 A3002 RMK A01 T00581045  RH  048%=      5-min Rain = 0
KMUS 240550Z 25006KT 05/M04 A3002 RMK A01 T00531043  RH  050%=      5-min Rain = 0
KMUS 240555Z 26005KT 05/M04 A3002 RMK A01 T00511040  RH  052%=      5-min Rain = 0
KMUS 240600Z 25006KT 05/M04 A3002 RMK A01 T00471039  RH  054%=      5-min Rain = 0
KMUS 240605Z 26006KT 05/M04 A3002 RMK A01 T00491039  RH  053%=      5-min Rain = 0
KMUS 240610Z 26006KT 05/M04 A3002 RMK A01 T00481036  RH  055%=      5-min Rain = 0
KMUS 240615Z 26007KT 05/M04 A3002 RMK A01 T00471035  RH  056%=      5-min Rain = 0
KMUS 240620Z 27008KT 05/M04 A3002 RMK A01 T00461035  RH  056%=      5-min Rain = 0
KMUS 240625Z 27007KT 05/M03 A3002 RMK A01 T00451034  RH  057%=      5-min Rain = 0
KMUS 240630Z 27007KT 05/M03 A3002 RMK A01 T00451033  RH  057%=      5-min Rain = 0
KMUS 240635Z 26007KT 05/M03 A3002 RMK A01 T00451034  RH  057%=      5-min Rain = 0
KMUS 240640Z 25008KT 05/M04 A3002 RMK A01 T00471035  RH  056%=      5-min Rain = 0
KMUS 240645Z 25007KT 05/M03 A3002 RMK A01 T00481034  RH  056%=      5-min Rain = 0
KMUS 240650Z 25007KT 05/M03 A3002 RMK A01 T00461034  RH  056%=      5-min Rain = 0
KMUS 240655Z 25007KT 05/M04 A3002 RMK A01 T00461035  RH  056%=      5-min Rain = 0
KMUS 240700Z 25008KT 05/M04 A3002 RMK A01 T00471036  RH  055%=      5-min Rain = 0
KMUS 240705Z 24007KT 05/M04 A3002 RMK A01 T00491036  RH  055%=      5-min Rain = 0
KMUS 240710Z 24006KT 05/M04 A3002 RMK A01 T00501035  RH  054%=      5-min Rain = 0
KMUS 240715Z 24005KT 05/M04 A3002 RMK A01 T00491035  RH  055%=      5-min Rain = 0
KMUS 240720Z 24004KT 05/M04 A3002 RMK A01 T00491036  RH  054%=      5-min Rain = 0
KMUS 240725Z 21002KT 05/M04 A3003 RMK A01 T00481036  RH  055%=      5-min Rain = 0
KMUS 240730Z 22002KT 05/M04 A3003 RMK A01 T00461037  RH  055%=      5-min Rain = 0
KMUS 240735Z 23002KT 04/M04 A3003 RMK A01 T00441038  RH  055%=      5-min Rain = 0
KMUS 240740Z 23001KT 05/M04 A3003 RMK A01 T00451039  RH  055%=      5-min Rain = 0
KMUS 240745Z 23001KT 04/M04 A3003 RMK A01 T00441040  RH  055%=      5-min Rain = 0
KMUS 240750Z 23003KT 04/M04 A3003 RMK A01 T00421037  RH  057%=      5-min Rain = 0
KMUS 240755Z 24003KT 04/M04 A3003 RMK A01 T00381035  RH  059%=      5-min Rain = 0
KMUS 240800Z 26001KT 04/M04 A3003 RMK A01 T00361035  RH  060%=      5-min Rain = 0
KMUS 240805Z 29001KT 04/M03 A3003 RMK A01 T00351032  RH  062%=      5-min Rain = 0
KMUS 240810Z 30003KT 03/M03 A3003 RMK A01 T00321028  RH  065%=      5-min Rain = 0
KMUS 240815Z 30004KT 03/M03 A3003 RMK A01 T00271026  RH  069%=      5-min Rain = 0
KMUS 240820Z 32004KT 03/M03 A3003 RMK A01 T00251025  RH  070%=      5-min Rain = 0
KMUS 240825Z 33005KT 02/M02 A3003 RMK A01 T00241024  RH  071%=      5-min Rain = 0
KMUS 240830Z 32005KT 03/M02 A3003 RMK A01 T00251023  RH  071%=      5-min Rain = 0
KMUS 240835Z 32006KT 03/M02 A3003 RMK A01 T00251023  RH  071%=      5-min Rain = 0
KMUS 240840Z 35009G14KT 03/M02 A3003 RMK A01 T00271022  RH  071%=      5-min Rain = 0
KMUS 240845Z 00006KT 04/M02 A3003 RMK A01 T00361022  RH  066%=      5-min Rain = 0
KMUS 240850Z 35004KT 04/M02 A3003 RMK A01 T00411021  RH  064%=      5-min Rain = 0
KMUS 240855Z 32004KT 04/M02 A3003 RMK A01 T00411022  RH  064%=      5-min Rain = 0
KMUS 240900Z 28003KT 04/M02 A3003 RMK A01 T00371022  RH  066%=      5-min Rain = 0
KMUS 240905Z 29003KT 03/M02 A3003 RMK A01 T00341021  RH  068%=      5-min Rain = 0
KMUS 240910Z 29003KT 03/M02 A3003 RMK A01 T00341019  RH  069%=      5-min Rain = 0
KMUS 240915Z 30004KT 03/M02 A3003 RMK A01 T00331019  RH  069%=      5-min Rain = 0
KMUS 240920Z 31002KT 03/M02 A3004 RMK A01 T00311019  RH  070%=      5-min Rain = 0
KMUS 240925Z 30002KT 03/M02 A3004 RMK A01 T00281019  RH  072%=      5-min Rain = 0
KMUS 240930Z 27003KT 03/M02 A3004 RMK A01 T00261019  RH  073%=      5-min Rain = 0
KMUS 240935Z 27006KT 02/M02 A3004 RMK A01 T00231021  RH  073%=      5-min Rain = 0
KMUS 240940Z 29007KT 02/M02 A3004 RMK A01 T00241019  RH  074%=      5-min Rain = 0
KMUS 240945Z 30007KT 02/M02 A3005 RMK A01 T00241018  RH  074%=      5-min Rain = 0
KMUS 240950Z 31006KT 03/M02 A3005 RMK A01 T00261018  RH  073%=      5-min Rain = 0
KMUS 240955Z 34006KT 03/M02 A3005 RMK A01 T00251018  RH  074%=      5-min Rain = 0
KMUS 241000Z 35005KT 02/M02 A3005 RMK A01 T00231018  RH  075%=      5-min Rain = 0
KMUS 241005Z 34007KT 03/M02 A3005 RMK A01 T00251015  RH  075%=      5-min Rain = 0
KMUS 241010Z 34009KT 04/M01 A3005 RMK A01 T00361005  RH  075%=      5-min Rain = 0
KMUS 241015Z 34009KT 05/M00 A3004 RMK A01 T00501002  RH  070%=      5-min Rain = 0
KMUS 241020Z 35008KT 05/00 A3004 RMK A01 T00520000  RH  070%=      5-min Rain = 0
KMUS 241025Z 35006KT 05/00 A3004 RMK A01 T00520002  RH  071%=      5-min Rain = 0
KMUS 241030Z 34005KT 05/00 A3005 RMK A01 T00520003  RH  072%=      5-min Rain = 0
KMUS 241035Z 33005KT 05/00 A3005 RMK A01 T00490003  RH  073%=      5-min Rain = 0
KMUS 241040Z 33003KT 05/00 A3005 RMK A01 T00460004  RH  075%=      5-min Rain = 0
KMUS 241045Z 31004KT 04/00 A3005 RMK A01 T00420002  RH  076%=      5-min Rain = 0
KMUS 241050Z 32005KT 04/00 A3006 RMK A01 T00380002  RH  078%=      5-min Rain = 0
KMUS 241055Z 33005KT 04/00 A3006 RMK A01 T00350003  RH  080%=      5-min Rain = 0
KMUS 241100Z 34005KT 03/00 A3005 RMK A01 T00330003  RH  082%=      5-min Rain = 0
KMUS 241105Z 34005KT 03/00 A3005 RMK A01 T00310003  RH  083%=      5-min Rain = 0
KMUS 241110Z 34004KT 03/00 A3005 RMK A01 T00290003  RH  084%=      5-min Rain = 0
KMUS 241115Z 34003KT 03/00 A3006 RMK A01 T00280004  RH  085%=      5-min Rain = 0
KMUS 241120Z 33003KT 03/01 A3005 RMK A01 T00290005  RH  085%=      5-min Rain = 0
KMUS 241125Z 33004KT 03/00 A3005 RMK A01 T00260002  RH  085%=      5-min Rain = 0
KMUS 241130Z 33004KT 02/M00 A3006 RMK A01 T00221001  RH  086%=      5-min Rain = 0
KMUS 241135Z 33005KT 02/M00 A3005 RMK A01 T00201001  RH  087%=      5-min Rain = 0
KMUS 241140Z 33005KT 02/00 A3005 RMK A01 T00190000  RH  089%=      5-min Rain = 0
KMUS 241145Z 31003KT 02/00 A3005 RMK A01 T00190002  RH  089%=      5-min Rain = 0
KMUS 241150Z 30001KT 02/00 A3006 RMK A01 T00200003  RH  090%=      5-min Rain = 0
KMUS 241155Z 34001KT 02/00 A3006 RMK A01 T00200004  RH  090%=      5-min Rain = 0
KMUS 241200Z 23000KT 02/00 A3006 RMK A01 T00200004  RH  090%=      5-min Rain = 0
KMUS 241205Z 32002KT 02/M00 A3006 RMK A01 T00161002  RH  089%=      5-min Rain = 0
KMUS 241210Z 28001KT 01/M00 A3006 RMK A01 T00121004  RH  090%=      5-min Rain = 0
KMUS 241215Z 36001KT 01/M01 A3006 RMK A01 T00111005  RH  091%=      5-min Rain = 0
KMUS 241220Z 35002KT 01/M00 A3006 RMK A01 T00121002  RH  092%=      5-min Rain = 0
KMUS 241225Z 34001KT 01/M00 A3007 RMK A01 T00101004  RH  091%=      5-min Rain = 0
KMUS 241230Z 35001KT 01/M00 A3007 RMK A01 T00101004  RH  092%=      5-min Rain = 0
KMUS 241235Z 00002KT 01/M01 A3007 RMK A01 T00081006  RH  092%=      5-min Rain = 0
KMUS 241240Z 00003KT 01/00 A3007 RMK A01 T00120001  RH  094%=      5-min Rain = 0
KMUS 241245Z 35004KT 02/00 A3007 RMK A01 T00150002  RH  092%=      5-min Rain = 0
KMUS 241250Z 34004KT 01/00 A3007 RMK A01 T00140000  RH  092%=      5-min Rain = 0
KMUS 241255Z 34003KT 01/M00 A3008 RMK A01 T00111003  RH  091%=      5-min Rain = 0
KMUS 241300Z 34003KT 01/M00 A3008 RMK A01 T00091004  RH  092%=      5-min Rain = 0
KMUS 241305Z 33002KT 01/M00 A3008 RMK A01 T00101003  RH  092%=      5-min Rain = 0
KMUS 241310Z 32002KT 01/M00 A3008 RMK A01 T00101003  RH  092%=      5-min Rain = 0
KMUS 241315Z 33003KT 01/00 A3008 RMK A01 T00120001  RH  093%=      5-min Rain = 0
KMUS 241320Z 33003KT 02/01 A3008 RMK A01 T00170005  RH  093%=      5-min Rain = 0
KMUS 241325Z 33004KT 02/01 A3009 RMK A01 T00210008  RH  093%=      5-min Rain = 0
KMUS 241330Z 32003KT 03/01 A3009 RMK A01 T00250012  RH  092%=      5-min Rain = 0
KMUS 241335Z 32004KT 03/02 A3009 RMK A01 T00300016  RH  092%=      5-min Rain = 0
KMUS 241340Z 33005KT 04/02 A3009 RMK A01 T00350018  RH  090%=      5-min Rain = 0
KMUS 241345Z 33004KT 04/02 A3009 RMK A01 T00390019  RH  088%=      5-min Rain = 0
KMUS 241350Z 33003KT 04/02 A3009 RMK A01 T00420021  RH  087%=      5-min Rain = 0
KMUS 241355Z 35004KT 05/02 A301 RMK A01 T00460021  RH  085%=      5-min Rain = 0
KMUS 241400Z 36006KT 05/02 A301 RMK A01 T00510022  RH  083%=      5-min Rain = 0
KMUS 241405Z 36005KT 06/02 A301 RMK A01 T00550023  RH  081%=      5-min Rain = 0
KMUS 241410Z 01005KT 06/02 A301 RMK A01 T00580024  RH  080%=      5-min Rain = 0
KMUS 241415Z 00005KT 06/03 A301 RMK A01 T00610025  RH  079%=      5-min Rain = 0
KMUS 241420Z 36006KT 06/03 A301 RMK A01 T00640025  RH  078%=      5-min Rain = 0
KMUS 241425Z 01006KT 07/03 A301 RMK A01 T00670026  RH  076%=      5-min Rain = 0
KMUS 241430Z 01007KT 07/03 A3011 RMK A01 T00700026  RH  075%=      5-min Rain = 0
KMUS 241435Z 02006KT 07/03 A3011 RMK A01 T00730026  RH  074%=      5-min Rain = 0
KMUS 241440Z 02005KT 08/03 A3011 RMK A01 T00750027  RH  073%=      5-min Rain = 0
KMUS 241445Z 02007KT 08/03 A3011 RMK A01 T00790027  RH  071%=      5-min Rain = 0
KMUS 241450Z 04007KT 08/03 A301 RMK A01 T00830028  RH  070%=      5-min Rain = 0
KMUS 241455Z 04008KT 09/03 A301 RMK A01 T00870029  RH  068%=      5-min Rain = 0
KMUS 241500Z 04008KT 09/03 A301 RMK A01 T00890029  RH  067%=      5-min Rain = 0
KMUS 241505Z 03007KT 09/03 A3011 RMK A01 T00920030  RH  066%=      5-min Rain = 0
KMUS 241510Z 03007KT 09/03 A3011 RMK A01 T00940030  RH  066%=      5-min Rain = 0
KMUS 241515Z 02006KT 10/03 A3011 RMK A01 T00950030  RH  065%=      5-min Rain = 0
KMUS 241520Z 02006KT 10/03 A3011 RMK A01 T00950031  RH  065%=      5-min Rain = 0
KMUS 241525Z 04006KT 10/03 A3011 RMK A01 T01000032  RH  064%=      5-min Rain = 0
KMUS 241530Z 03006KT 10/03 A3011 RMK A01 T01030033  RH  063%=      5-min Rain = 0
KMUS 241535Z 02006KT 11/03 A3011 RMK A01 T01050032  RH  062%=      5-min Rain = 0
KMUS 241540Z 02005KT 11/03 A3011 RMK A01 T01060033  RH  062%=      5-min Rain = 0
KMUS 241545Z 04005KT 11/03 A3012 RMK A01 T01100032  RH  060%=      5-min Rain = 0
KMUS 241550Z 03005KT 11/03 A3012 RMK A01 T01110032  RH  059%=      5-min Rain = 0
KMUS 241555Z 02005KT 11/03 A3012 RMK A01 T01130033  RH  059%=      5-min Rain = 0
KMUS 241600Z 04005KT 12/03 A3012 RMK A01 T01150033  RH  058%=      5-min Rain = 0
KMUS 241605Z 04004KT 12/04 A3012 RMK A01 T01170035  RH  058%=      5-min Rain = 0
KMUS 241610Z 04005KT 12/03 A3012 RMK A01 T01200034  RH  056%=      5-min Rain = 0
KMUS 241615Z 03003KT 12/04 A3012 RMK A01 T01180036  RH  058%=      5-min Rain = 0
KMUS 241620Z 03005KT 12/04 A3012 RMK A01 T01230035  RH  056%=      5-min Rain = 0
KMUS 241625Z 04003KT 13/04 A3012 RMK A01 T01270038  RH  056%=      5-min Rain = 0
KMUS 241630Z 06004KT 13/04 A3012 RMK A01 T01290036  RH  054%=      5-min Rain = 0
KMUS 241635Z 08003KT 13/04 A3012 RMK A01 T01320037  RH  053%=      5-min Rain = 0
KMUS 241640Z 02005KT 14/04 A3012 RMK A01 T01360035  RH  052%=      5-min Rain = 0
KMUS 241645Z 04001KT 14/04 A3012 RMK A01 T01360036  RH  052%=      5-min Rain = 0
KMUS 241650Z 03003KT 15/04 A3012 RMK A01 T01460037  RH  049%=      5-min Rain = 0
KMUS 241655Z 04003KT 14/03 A3012 RMK A01 T01410032  RH  048%=      5-min Rain = 0
KMUS 241700Z 03001KT 14/04 A3012 RMK A01 T01440035  RH  049%=      5-min Rain = 0
KMUS 241705Z 05003KT 15/03 A3012 RMK A01 T01480032  RH  046%=      5-min Rain = 0
KMUS 241710Z 00001KT 15/04 A3012 RMK A01 T01510035  RH  046%=      5-min Rain = 0
KMUS 241715Z 02003KT 16/03 A3012 RMK A01 T01550032  RH  044%=      5-min Rain = 0
KMUS 241720Z 32004KT 16/03 A3012 RMK A01 T01570027  RH  042%=      5-min Rain = 0
KMUS 241725Z 31003KT 16/03 A3012 RMK A01 T01560028  RH  043%=      5-min Rain = 0
KMUS 241730Z 32003KT 16/03 A3012 RMK A01 T01590027  RH  042%=      5-min Rain = 0
KMUS 241735Z 29002KT 16/03 A3012 RMK A01 T01570026  RH  042%=      5-min Rain = 0
KMUS 241740Z 28002KT 16/03 A3012 RMK A01 T01560026  RH  042%=      5-min Rain = 0
KMUS 241745Z 34003KT 16/03 A3012 RMK A01 T01590028  RH  042%=      5-min Rain = 0
KMUS 241750Z 34003KT 16/03 A3012 RMK A01 T01610027  RH  041%=      5-min Rain = 0
KMUS 241755Z 35003KT 16/03 A3012 RMK A01 T01620027  RH  041%=      5-min Rain = 0
KMUS 241800Z 02004KT 16/03 A3012 RMK A01 T01630030  RH  041%=      5-min Rain = 0
KMUS 241805Z 31004G9KT 17/02 A3012 RMK A01 T01680022  RH  038%=      5-min Rain = 0
KMUS 241810Z 29003KT 17/02 A3012 RMK A01 T01670019  RH  037%=      5-min Rain = 0
KMUS 241815Z 02005G10KT 17/03 A3012 RMK A01 T01670026  RH  039%=      5-min Rain = 0
KMUS 241820Z 04004KT 17/03 A3011 RMK A01 T01670031  RH  041%=      5-min Rain = 0
KMUS 241825Z 04004KT 17/03 A3011 RMK A01 T01660029  RH  040%=      5-min Rain = 0
KMUS 241830Z 36005KT 17/03 A3011 RMK A01 T01670029  RH  040%=      5-min Rain = 0
KMUS 241835Z 35006G11KT 17/03 A301 RMK A01 T01710027  RH  039%=      5-min Rain = 0
KMUS 241840Z 02003KT 17/02 A301 RMK A01 T01730024  RH  038%=      5-min Rain = 0
KMUS 241845Z 06003KT 17/02 A301 RMK A01 T01720024  RH  038%=      5-min Rain = 0
KMUS 241850Z 31003KT 17/02 A301 RMK A01 T01730015  RH  035%=      5-min Rain = 0
KMUS 241855Z 28003KT 18/02 A301 RMK A01 T01770016  RH  035%=      5-min Rain = 0
KMUS 241900Z 32004KT 18/02 A301 RMK A01 T01800016  RH  034%=      5-min Rain = 0
KMUS 241905Z 33001G6KT 18/01 A3009 RMK A01 T01810013  RH  033%=      5-min Rain = 0
KMUS 241910Z 26002KT 18/01 A3009 RMK A01 T01780013  RH  033%=      5-min Rain = 0
KMUS 241915Z 01002KT 18/01 A3009 RMK A01 T01800012  RH  033%=      5-min Rain = 0
KMUS 241920Z 04003KT 18/02 A3009 RMK A01 T01780017  RH  034%=      5-min Rain = 0
KMUS 241925Z 10003KT 18/02 A3009 RMK A01 T01800017  RH  034%=      5-min Rain = 0
KMUS 241930Z 12001KT 18/02 A3009 RMK A01 T01780018  RH  035%=      5-min Rain = 0
KMUS 241935Z 06002KT 18/02 A3009 RMK A01 T01810017  RH  034%=      5-min Rain = 0
KMUS 241940Z 04003KT 18/02 A3009 RMK A01 T01830020  RH  034%=      5-min Rain = 0
KMUS 241945Z 07002KT 19/02 A3009 RMK A01 T01910022  RH  033%=      5-min Rain = 0
KMUS 241950Z 04003KT 19/02 A3008 RMK A01 T01920021  RH  032%=      5-min Rain = 0
KMUS 241955Z 34002KT 20/02 A3008 RMK A01 T01950015  RH  031%=      5-min Rain = 0
KMUS 242000Z 05002KT 20/02 A3008 RMK A01 T01970017  RH  031%=      5-min Rain = 0
KMUS 242005Z 01003KT 19/01 A3008 RMK A01 T01940014  RH  030%=      5-min Rain = 0
KMUS 242010Z 26002KT 20/01 A3008 RMK A01 T01960007  RH  029%=      5-min Rain = 0
KMUS 242015Z 26001KT 20/01 A3007 RMK A01 T02010008  RH  028%=      5-min Rain = 0
KMUS 242020Z 25002KT 20/01 A3007 RMK A01 T02010005  RH  027%=      5-min Rain = 0
KMUS 242025Z 33002KT 21/00 A3007 RMK A01 T02060004  RH  026%=      5-min Rain = 0
KMUS 242030Z 34004KT 21/00 A3007 RMK A01 T02090002  RH  025%=      5-min Rain = 0
KMUS 242035Z 33005G11KT 20/00 A3007 RMK A01 T02040000  RH  026%=      5-min Rain = 0
KMUS 242040Z 29007KT 21/00 A3007 RMK A01 T02050003  RH  026%=      5-min Rain = 0
KMUS 242045Z 24006KT 21/M00 A3007 RMK A01 T02061003  RH  025%=      5-min Rain = 0
KMUS 242050Z 31005G10KT 20/00 A3007 RMK A01 T02040000  RH  026%=      5-min Rain = 0
KMUS 242055Z 28006KT 20/M00 A3007 RMK A01 T02041002  RH  025%=      5-min Rain = 0
KMUS 242100Z 27007G12KT 21/M00 A3007 RMK A01 T02071004  RH  024%=      5-min Rain = 0
KMUS 242105Z 27005G11KT 21/M01 A3007 RMK A01 T02081005  RH  024%=      5-min Rain = 0
KMUS 242110Z 20004G9KT 21/M00 A3006 RMK A01 T02101003  RH  024%=      5-min Rain = 0
KMUS 242115Z 23006G15KT 21/M01 A3006 RMK A01 T02101006  RH  024%=      5-min Rain = 0
KMUS 242120Z 24001KT 21/M00 A3006 RMK A01 T02091004  RH  024%=      5-min Rain = 0
KMUS 242125Z 23004KT 21/M01 A3006 RMK A01 T02121006  RH  024%=      5-min Rain = 0
KMUS 242130Z 27004KT 21/M02 A3005 RMK A01 T02101017  RH  022%=      5-min Rain = 0
KMUS 242135Z 25010G17KT 22/M03 A3005 RMK A01 T02151026  RH  020%=      5-min Rain = 0
KMUS 242140Z 27012G18KT 22/M04 A3005 RMK A01 T02191044  RH  017%=      5-min Rain = 0
KMUS 242145Z 26015G21KT 22/M04 A3005 RMK A01 T02211043  RH  017%=      5-min Rain = 0
KMUS 242150Z 26013G20KT 22/M04 A3005 RMK A01 T02201043  RH  017%=      5-min Rain = 0
KMUS 242155Z 25012G18KT 22/M04 A3005 RMK A01 T02201041  RH  017%=      5-min Rain = 0
KMUS 242200Z 26013G21KT 22/M04 A3005 RMK A01 T02211038  RH  017%=      5-min Rain = 0
KMUS 242205Z 24011KT 22/M04 A3005 RMK A01 T02211042  RH  017%=      5-min Rain = 0
KMUS 242210Z 25010G16KT 22/M04 A3004 RMK A01 T02181041  RH  017%=      5-min Rain = 0
KMUS 242215Z 24011G17KT 22/M04 A3004 RMK A01 T02201039  RH  017%=      5-min Rain = 0
KMUS 242220Z 28011G18KT 22/M04 A3004 RMK A01 T02211039  RH  017%=      5-min Rain = 0
KMUS 242225Z 26011G16KT 22/M04 A3004 RMK A01 T02231041  RH  017%=      5-min Rain = 0
KMUS 242230Z 24010G17KT 22/M05 A3004 RMK A01 T02231045  RH  016%=      5-min Rain = 0
KMUS 242235Z 25013KT 22/M06 A3004 RMK A01 T02241058  RH  015%=      5-min Rain = 0
KMUS 242240Z 27011KT 22/M05 A3004 RMK A01 T02241054  RH  015%=      5-min Rain = 0
KMUS 242245Z 28011KT 23/M05 A3004 RMK A01 T02251053  RH  015%=      5-min Rain = 0
KMUS 242250Z 29009G14KT 23/M05 A3003 RMK A01 T02281053  RH  015%=      5-min Rain = 0
KMUS 242255Z 28008KT 23/M06 A3003 RMK A01 T02261058  RH  015%=      5-min Rain = 0
KMUS 242300Z 29008G14KT 23/M06 A3003 RMK A01 T02261060  RH  014%=      5-min Rain = 0
KMUS 242305Z 30007KT 22/M07 A3003 RMK A01 T02241065  RH  014%=      5-min Rain = 0
KMUS 242310Z 29008KT 23/M06 A3003 RMK A01 T02251058  RH  015%=      5-min Rain = 0
KMUS 242315Z 27008KT 23/M07 A3003 RMK A01 T02271070  RH  013%=      5-min Rain = 0
KMUS 242320Z 25007KT 23/M07 A3003 RMK A01 T02271073  RH  013%=      5-min Rain = 0
KMUS 242325Z 29008G13KT 23/M06 A3003 RMK A01 T02291060  RH  014%=      5-min Rain = 0
KMUS 242330Z 30007KT 23/M06 A3003 RMK A01 T02261057  RH  015%=      5-min Rain = 0
KMUS 242335Z 27007KT 23/M06 A3003 RMK A01 T02251057  RH  015%=      5-min Rain = 0
KMUS 242340Z 27008G13KT 23/M06 A3003 RMK A01 T02251058  RH  015%=      5-min Rain = 0
KMUS 242345Z 25010G15KT 23/M06 A3003 RMK A01 T02261064  RH  014%=      5-min Rain = 0
KMUS 242350Z 28009G17KT 22/M06 A3003 RMK A01 T02231063  RH  014%=      5-min Rain = 0
KMUS 242355Z 26010KT 22/M07 A3003 RMK A01 T02221065  RH  014%=      5-min Rain = 0
KMUS 250000Z 26009KT 22/M07 A3003 RMK A01 T02211066  RH  014%=      5-min Rain = 0
KMUS 250005Z 26006G11KT 22/M06 A3003 RMK A01 T02191064  RH  015%=      5-min Rain = 0
KMUS 250010Z 27006KT 22/M06 A3003 RMK A01 T02191064  RH  014%=      5-min Rain = 0
KMUS 250015Z 26006G12KT 22/M06 A3003 RMK A01 T02161063  RH  015%=      5-min Rain = 0
KMUS 250020Z 27006KT 21/M06 A3003 RMK A01 T02141058  RH  016%=      5-min Rain = 0
KMUS 250025Z 27004KT 21/M05 A3003 RMK A01 T02121053  RH  016%=      5-min Rain = 0
KMUS 250030Z 27004KT 21/M05 A3004 RMK A01 T02111048  RH  017%=      5-min Rain = 0
KMUS 250035Z 26004KT 21/M05 A3004 RMK A01 T02091045  RH  018%=      5-min Rain = 0
KMUS 250040Z 25004KT 21/M05 A3004 RMK A01 T02071046  RH  018%=      5-min Rain = 0
KMUS 250045Z 24005KT 20/M05 A3004 RMK A01 T02031045  RH  018%=      5-min Rain = 0
KMUS 250050Z 24005KT 20/M04 A3004 RMK A01 T01971044  RH  019%=      5-min Rain = 0
KMUS 250055Z 23005KT 19/M04 A3004 RMK A01 T01901042  RH  021%=      5-min Rain = 0
KMUS 250100Z 22005KT 18/M04 A3004 RMK A01 T01801041  RH  022%=      5-min Rain = 0
KMUS 250105Z 21005KT 17/M04 A3004 RMK A01 T01691037  RH  024%=      5-min Rain = 0
KMUS 250110Z 20005KT 16/M03 A3004 RMK A01 T01611032  RH  027%=      5-min Rain = 0
KMUS 250115Z 20006KT 15/M02 A3004 RMK A01 T01511024  RH  030%=      5-min Rain = 0
KMUS 250120Z 20006KT 14/M02 A3004 RMK A01 T01431022  RH  032%=      5-min Rain = 0
KMUS 250125Z 19006KT 14/M02 A3004 RMK A01 T01391017  RH  034%=      5-min Rain = 0
KMUS 250130Z 19006KT 14/M02 A3004 RMK A01 T01391015  RH  035%=      5-min Rain = 0
KMUS 250135Z 20007KT 14/M01 A3004 RMK A01 T01361012  RH  036%=      5-min Rain = 0
KMUS 250140Z 20008KT 13/M01 A3005 RMK A01 T01291007  RH  040%=      5-min Rain = 0
KMUS 250145Z 20008KT 13/M01 A3005 RMK A01 T01251008  RH  040%=      5-min Rain = 0
KMUS 250150Z 20009KT 12/M02 A3005 RMK A01 T01201024  RH  037%=      5-min Rain = 0
KMUS 250155Z 21009KT 12/M03 A3005 RMK A01 T01191029  RH  036%=      5-min Rain = 0
KMUS 250200Z 21008KT 12/M03 A3006 RMK A01 T01161030  RH  036%=      5-min Rain = 0
KMUS 250205Z 21006KT 11/M03 A3006 RMK A01 T01111032  RH  037%=      5-min Rain = 0
KMUS 250210Z 20007KT 11/M03 A3006 RMK A01 T01071031  RH  038%=      5-min Rain = 0
KMUS 250215Z 21007KT 10/M03 A3007 RMK A01 T01031029  RH  039%=      5-min Rain = 0
KMUS 250220Z 23005KT 11/M03 A3007 RMK A01 T01061029  RH  039%=      5-min Rain = 0
KMUS 250225Z 23007KT 11/M03 A3007 RMK A01 T01121033  RH  036%=      5-min Rain = 0
KMUS 250230Z 25008KT 11/M03 A3007 RMK A01 T01131032  RH  036%=      5-min Rain = 0
KMUS 250235Z 25006KT 12/M03 A3008 RMK A01 T01151033  RH  035%=      5-min Rain = 0
KMUS 250240Z 25008G13KT 12/M04 A3008 RMK A01 T01171036  RH  034%=      5-min Rain = 0
KMUS 250245Z 25006KT 12/M04 A3008 RMK A01 T01241039  RH  032%=      5-min Rain = 0
KMUS 250250Z 24007KT 12/M04 A3008 RMK A01 T01191039  RH  033%=      5-min Rain = 0
KMUS 250255Z 24006KT 11/M04 A3009 RMK A01 T01121038  RH  035%=      5-min Rain = 0
KMUS 250300Z 25005KT 11/M04 A3009 RMK A01 T01101042  RH  034%=      5-min Rain = 0
KMUS 250305Z 26004KT 11/M04 A3009 RMK A01 T01101042  RH  034%=      5-min Rain = 0
KMUS 250310Z 26003KT 11/M04 A3009 RMK A01 T01081039  RH  036%=      5-min Rain = 0
KMUS 250315Z 26004KT 11/M04 A301 RMK A01 T01071041  RH  035%=      5-min Rain = 0
KMUS 250320Z 26007KT 11/M05 A301 RMK A01 T01091046  RH  033%=      5-min Rain = 0
KMUS 250325Z 26007KT 11/M05 A301 RMK A01 T01051046  RH  034%=      5-min Rain = 0
KMUS 250330Z 26007KT 10/M05 A301 RMK A01 T00961047  RH  036%=      5-min Rain = 0
KMUS 250335Z 27007KT 09/M05 A301 RMK A01 T00941046  RH  037%=      5-min Rain = 0
KMUS 250340Z 27007KT 09/M04 A3011 RMK A01 T00921044  RH  038%=      5-min Rain = 0
KMUS 250345Z 27007KT 09/M04 A3011 RMK A01 T00911043  RH  039%=      5-min Rain = 0
KMUS 250350Z 27007KT 09/M04 A3011 RMK A01 T00911043  RH  039%=      5-min Rain = 0
KMUS 250355Z 27008KT 09/M04 A3011 RMK A01 T00881042  RH  040%=      5-min Rain = 0
KMUS 250400Z 26008KT 09/M04 A3012 RMK A01 T00871043  RH  040%=      5-min Rain = 0
KMUS 250405Z 26008KT 09/M05 A3012 RMK A01 T00881046  RH  039%=      5-min Rain = 0
KMUS 250410Z 26008KT 09/M05 A3012 RMK A01 T00861045  RH  040%=      5-min Rain = 0
KMUS 250415Z 25009KT 09/M05 A3011 RMK A01 T00851045  RH  040%=      5-min Rain = 0
KMUS 250420Z 24010KT 09/M05 A3011 RMK A01 T00871048  RH  038%=      5-min Rain = 0
KMUS 250425Z 25009KT 09/M05 A3011 RMK A01 T00881048  RH  038%=      5-min Rain = 0
KMUS 250430Z 26009KT 09/M05 A3011 RMK A01 T00941049  RH  036%=      5-min Rain = 0
KMUS 250435Z 26008KT 10/M05 A3012 RMK A01 T00961048  RH  036%=      5-min Rain = 0
KMUS 250440Z 26007KT 09/M05 A3012 RMK A01 T00931045  RH  037%=      5-min Rain = 0
KMUS 250445Z 27005KT 09/M05 A3012 RMK A01 T00901045  RH  038%=      5-min Rain = 0
KMUS 250450Z 27005KT 09/M04 A3012 RMK A01 T00871043  RH  040%=      5-min Rain = 0
KMUS 250455Z 27006KT 08/M04 A3013 RMK A01 T00831040  RH  042%=      5-min Rain = 0

Page generated in 0.0098 seconds.